createdAt,value
2022-11-29T00:02:08.834Z,5.24
2022-11-29T00:04:36.310Z,5.68
2022-11-29T00:07:04.101Z,5.36
2022-11-29T00:09:30.898Z,5.48
2022-11-29T00:12:00.131Z,5.40
2022-11-29T00:14:33.880Z,5.13
2022-11-29T00:17:00.850Z,5.60
2022-11-29T00:19:28.162Z,5.66
2022-11-29T00:21:54.862Z,5.48
2022-11-29T00:24:21.392Z,5.34
2022-11-29T00:26:49.996Z,5.41
2022-11-29T00:31:49.090Z,5.38
2022-11-29T00:34:16.058Z,5.18
2022-11-29T00:36:46.594Z,5.42
2022-11-29T00:39:17.651Z,5.18
2022-11-29T00:41:45.541Z,4.79
2022-11-29T00:44:18.359Z,5.12
2022-11-29T00:46:49.578Z,5.11
2022-11-29T00:49:16.781Z,5.32
2022-11-29T00:51:43.445Z,5.09
2022-11-29T00:54:17.605Z,5.48
2022-11-29T00:56:44.069Z,5.53
2022-11-29T00:59:14.538Z,5.29
2022-11-29T01:01:43.243Z,5.47
2022-11-29T01:04:10.300Z,5.53
2022-11-29T01:06:38.267Z,5.29
2022-11-29T01:09:05.052Z,5.48
2022-11-29T01:11:33.454Z,5.00
2022-11-29T01:17:11.969Z,5.07
2022-11-29T01:19:39.024Z,5.09
2022-11-29T01:22:06.161Z,5.03
2022-11-29T01:24:33.750Z,4.57
2022-11-29T01:27:00.718Z,4.58
2022-11-29T01:29:28.982Z,4.62
2022-11-29T01:31:56.511Z,4.83
2022-11-29T01:34:24.532Z,4.89
2022-11-29T01:36:51.843Z,5.03
2022-11-29T01:39:19.192Z,5.34
2022-11-29T01:41:48.210Z,5.27
2022-11-29T01:44:16.029Z,4.83
2022-11-29T01:46:43.481Z,5.04
2022-11-29T01:49:10.277Z,5.18
2022-11-29T01:51:37.954Z,5.23
2022-11-29T01:54:05.391Z,5.09
2022-11-29T01:56:32.644Z,5.39
2022-11-29T01:59:02.516Z,5.20
2022-11-29T02:01:33.372Z,5.16
2022-11-29T02:04:00.630Z,5.12
2022-11-29T02:06:27.608Z,4.97
2022-11-29T02:08:54.412Z,5.39
2022-11-29T02:11:21.950Z,5.33
2022-11-29T02:13:52.178Z,5.34
2022-11-29T02:16:20.234Z,5.44
2022-11-29T02:18:46.984Z,5.18
2022-11-29T02:21:13.858Z,5.54
2022-11-29T02:23:40.676Z,5.45
2022-11-29T02:26:07.874Z,6.36
2022-11-29T02:28:36.328Z,6.18
2022-11-29T02:31:05.071Z,5.73
2022-11-29T02:33:31.800Z,5.06
2022-11-29T02:35:58.526Z,5.35
2022-11-29T02:38:25.415Z,5.45
2022-11-29T02:40:55.701Z,4.88
2022-11-29T02:43:24.180Z,4.71
2022-11-29T02:45:53.045Z,4.68
2022-11-29T02:48:19.976Z,4.58
2022-11-29T02:50:49.090Z,4.59
2022-11-29T02:53:16.520Z,4.45
2022-11-29T02:55:43.202Z,4.56
2022-11-29T02:58:10.702Z,4.25
2022-11-29T03:00:37.531Z,4.11
2022-11-29T03:03:07.262Z,4.82
2022-11-29T03:05:35.755Z,5.02
2022-11-29T03:08:04.193Z,5.08
2022-11-29T03:10:33.262Z,5.30
2022-11-29T03:13:00.231Z,5.37
2022-11-29T03:15:28.265Z,5.79
2022-11-29T03:17:56.806Z,5.42
2022-11-29T03:20:27.616Z,5.44
2022-11-29T03:22:56.073Z,5.44
2022-11-29T03:25:24.554Z,5.22
2022-11-29T03:27:51.463Z,5.40
2022-11-29T03:30:18.532Z,5.62
2022-11-29T03:32:47.001Z,5.41
2022-11-29T03:35:13.969Z,5.67
2022-11-29T03:37:41.499Z,5.75
2022-11-29T03:40:08.577Z,5.56
2022-11-29T03:42:36.719Z,5.15
2022-11-29T03:48:25.842Z,5.31
2022-11-29T03:50:58.526Z,5.43
2022-11-29T03:53:25.943Z,5.11
2022-11-29T03:55:52.603Z,5.34
2022-11-29T03:58:19.380Z,5.64
2022-11-29T04:00:54.061Z,5.44
2022-11-29T04:03:22.253Z,5.25
2022-11-29T04:05:56.891Z,5.12
2022-11-29T04:08:24.559Z,4.96
2022-11-29T04:10:52.021Z,5.04
2022-11-29T04:13:40.230Z,5.49
2022-11-29T04:16:26.973Z,5.49
2022-11-29T04:18:53.826Z,5.45
2022-11-29T04:21:20.748Z,5.18
2022-11-29T04:23:51.711Z,5.09
2022-11-29T04:26:20.150Z,5.23
2022-11-29T04:28:47.233Z,5.32
2022-11-29T04:31:14.909Z,4.81
2022-11-29T04:33:41.797Z,4.53
2022-11-29T04:36:10.635Z,4.05
2022-11-29T04:38:38.135Z,3.87
2022-11-29T04:41:06.886Z,3.84
2022-11-29T04:43:37.894Z,4.00
2022-11-29T04:46:04.451Z,3.82
2022-11-29T04:48:33.222Z,3.58
2022-11-29T04:51:00.153Z,3.65
2022-11-29T04:53:27.236Z,3.46
2022-11-29T04:55:54.230Z,3.95
2022-11-29T04:58:23.855Z,3.72
2022-11-29T05:00:51.216Z,3.63
2022-11-29T05:03:20.394Z,3.92
2022-11-29T05:05:48.934Z,3.55
2022-11-29T05:08:17.975Z,3.39
2022-11-29T05:10:46.565Z,3.99
2022-11-29T05:13:13.260Z,3.79
2022-11-29T05:15:42.228Z,7.96
2022-11-29T05:18:09.667Z,3.71
2022-11-29T05:20:41.296Z,3.70
2022-11-29T05:23:12.131Z,4.16
2022-11-29T05:28:22.525Z,4.23
2022-11-29T05:30:52.588Z,4.35
2022-11-29T05:33:20.804Z,4.50
2022-11-29T05:35:49.493Z,4.68
2022-11-29T05:38:16.588Z,5.03
2022-11-29T05:40:43.894Z,4.94
2022-11-29T05:43:12.558Z,5.27
2022-11-29T05:45:39.541Z,5.23
2022-11-29T05:48:06.518Z,5.29
2022-11-29T05:50:43.267Z,5.63
2022-11-29T05:53:17.255Z,6.67
2022-11-29T05:55:44.211Z,6.87
2022-11-29T05:58:11.172Z,7.07
2022-11-29T06:00:41.192Z,6.33
2022-11-29T06:03:08.949Z,6.21
2022-11-29T06:05:36.271Z,6.05
2022-11-29T06:08:12.960Z,6.15
2022-11-29T06:10:46.215Z,5.90
2022-11-29T06:13:13.335Z,5.69
2022-11-29T06:18:37.222Z,5.90
2022-11-29T06:21:06.922Z,5.79
2022-11-29T06:23:50.459Z,5.56
2022-11-29T06:26:32.574Z,5.52
2022-11-29T06:31:43.702Z,6.48
2022-11-29T06:34:13.764Z,7.86
2022-11-29T06:36:45.687Z,7.25
2022-11-29T06:39:16.597Z,6.12
2022-11-29T06:44:32.165Z,6.93
2022-11-29T06:47:00.283Z,7.06
2022-11-29T06:49:27.758Z,6.78
2022-11-29T06:51:59.019Z,5.93
2022-11-29T06:54:25.751Z,5.92
2022-11-29T06:57:03.881Z,5.87
2022-11-29T07:04:57.327Z,4.65
2022-11-29T07:12:59.909Z,4.02
2022-11-29T07:15:28.974Z,4.36
2022-11-29T07:20:58.804Z,4.15
2022-11-29T07:26:06.606Z,3.45
2022-11-29T07:28:45.434Z,3.88
2022-11-29T07:31:17.515Z,3.16
2022-11-29T07:34:13.887Z,3.10
2022-11-29T07:36:48.417Z,2.89
2022-11-29T07:39:19.564Z,3.10
2022-11-29T07:41:48.893Z,3.01
2022-11-29T07:44:21.253Z,3.12
2022-11-29T07:46:48.721Z,3.27
2022-11-29T07:49:29.232Z,3.18
2022-11-29T07:52:02.645Z,2.96
2022-11-29T07:54:30.055Z,3.05
2022-11-29T07:56:58.930Z,3.26
2022-11-29T07:59:28.036Z,3.16
2022-11-29T08:01:59.487Z,3.56
2022-11-29T08:04:28.054Z,2.79
2022-11-29T08:07:06.605Z,3.25
2022-11-29T08:09:37.528Z,3.75
2022-11-29T08:12:12.330Z,3.41
2022-11-29T08:17:57.557Z,3.21
2022-11-29T08:20:31.467Z,2.98
2022-11-29T08:22:59.982Z,3.41
2022-11-29T08:25:27.086Z,3.44
2022-11-29T08:27:54.839Z,2.94
2022-11-29T08:30:23.884Z,3.16
2022-11-29T08:32:57.640Z,3.09
2022-11-29T08:35:26.540Z,3.00
2022-11-29T08:37:53.604Z,3.03
2022-11-29T08:40:21.722Z,3.84
2022-11-29T08:42:49.377Z,3.59
2022-11-29T08:48:08.734Z,5.17
2022-11-29T08:50:39.236Z,5.76
2022-11-29T08:53:09.685Z,6.24
2022-11-29T08:55:37.610Z,6.28
2022-11-29T08:58:05.295Z,6.00
2022-11-29T09:00:32.133Z,6.24
2022-11-29T09:05:43.539Z,5.91
2022-11-29T09:08:24.937Z,4.34
2022-11-29T09:10:57.540Z,3.29
2022-11-29T09:13:39.890Z,3.15
2022-11-29T09:16:11.497Z,3.28
2022-11-29T09:18:51.268Z,7.08
2022-11-29T09:24:32.835Z,3.18
2022-11-29T09:27:21.423Z,4.03
2022-11-29T09:29:55.948Z,4.05
2022-11-29T09:32:25.013Z,4.37
2022-11-29T09:34:54.558Z,3.51
2022-11-29T09:37:32.861Z,3.30
2022-11-29T09:46:01.875Z,3.16
2022-11-29T09:48:32.831Z,2.73
2022-11-29T09:51:00.207Z,2.70
2022-11-29T09:53:30.127Z,2.39
2022-11-29T09:55:57.108Z,2.20
2022-11-29T09:58:24.355Z,2.35
2022-11-29T10:01:14.603Z,1.92
2022-11-29T10:03:39.766Z,2.44
2022-11-29T10:06:14.224Z,2.30
2022-11-29T10:08:50.338Z,2.06
2022-11-29T10:11:20.446Z,2.53
2022-11-29T10:19:49.722Z,2.15
2022-11-29T10:22:20.426Z,2.45
2022-11-29T10:24:51.028Z,2.48
2022-11-29T10:27:18.613Z,2.21
2022-11-29T10:29:49.978Z,2.07
2022-11-29T10:32:20.578Z,1.76
2022-11-29T10:34:47.625Z,1.72
2022-11-29T10:37:16.208Z,1.69
2022-11-29T10:39:43.871Z,2.01
2022-11-29T10:42:12.602Z,2.17
2022-11-29T10:44:41.371Z,1.89
2022-11-29T10:47:11.099Z,1.78
2022-11-29T10:50:01.525Z,2.38
2022-11-29T10:52:33.800Z,3.30
2022-11-29T10:55:03.658Z,3.80
2022-11-29T11:00:11.579Z,3.81
2022-11-29T11:02:40.610Z,2.16
2022-11-29T11:05:16.778Z,3.21
2022-11-29T11:07:46.344Z,3.36
2022-11-29T11:10:18.031Z,2.55
2022-11-29T11:12:48.492Z,2.35
2022-11-29T11:15:21.333Z,1.74
2022-11-29T11:17:49.489Z,1.54
2022-11-29T11:20:17.770Z,1.92
2022-11-29T11:22:47.556Z,1.79
2022-11-29T11:25:24.212Z,2.18
2022-11-29T11:30:57.769Z,2.92
2022-11-29T11:33:39.621Z,2.83
2022-11-29T11:44:45.786Z,2.51
2022-11-29T11:47:07.372Z,1.86
2022-11-29T11:49:38.237Z,2.50
2022-11-29T11:54:55.411Z,1.95
2022-11-29T11:57:26.402Z,1.80
2022-11-29T11:59:56.202Z,1.62
2022-11-29T12:02:31.110Z,2.13
2022-11-29T12:05:19.328Z,2.12
2022-11-29T12:10:39.211Z,2.31
2022-11-29T12:13:10.027Z,1.74
2022-11-29T12:15:48.344Z,1.62
2022-11-29T12:18:16.366Z,1.50
2022-11-29T12:20:45.782Z,1.35
2022-11-29T12:23:14.734Z,1.49
2022-11-29T12:25:42.897Z,1.56
2022-11-29T12:28:19.819Z,1.94
2022-11-29T12:30:50.723Z,1.47
2022-11-29T12:33:21.764Z,1.65
2022-11-29T12:35:50.761Z,1.43
2022-11-29T12:38:18.708Z,1.34
2022-11-29T12:40:45.759Z,1.61
2022-11-29T12:48:38.673Z,1.27
2022-11-29T12:57:02.571Z,1.61
2022-11-29T13:02:34.387Z,1.39
2022-11-29T13:08:12.782Z,1.77
2022-11-29T13:13:21.087Z,1.31
2022-11-29T13:15:49.876Z,1.54
2022-11-29T13:21:07.149Z,1.75
2022-11-29T13:29:07.092Z,1.11
2022-11-29T13:31:39.781Z,1.20
2022-11-29T13:34:15.328Z,1.36
2022-11-29T13:39:27.759Z,2.07
2022-11-29T13:50:14.652Z,1.92
2022-11-29T13:52:45.964Z,2.00
2022-11-29T13:58:35.330Z,1.48
2022-11-29T14:01:06.676Z,1.61
2022-11-29T14:03:43.454Z,1.38
2022-11-29T14:06:11.753Z,1.28
2022-11-29T14:14:17.422Z,1.51
2022-11-29T14:16:49.311Z,1.32
2022-11-29T14:19:26.664Z,1.52
2022-11-29T14:22:03.260Z,1.61
2022-11-29T14:24:46.792Z,1.77
2022-11-29T14:27:15.349Z,1.81
2022-11-29T14:29:53.787Z,1.83
2022-11-29T14:32:33.608Z,1.52
2022-11-29T15:06:07.461Z,1.70
2022-11-29T15:17:33.418Z,2.15
2022-11-29T15:23:19.368Z,2.04
2022-11-29T15:27:12.662Z,2.31
2022-11-29T15:38:46.578Z,1.90
2022-11-29T15:43:06.202Z,1.82
2022-11-29T15:44:25.534Z,2.24
2022-11-29T15:47:45.559Z,2.01
2022-11-29T15:49:49.127Z,2.13
2022-11-29T15:52:20.333Z,1.95
2022-11-29T15:54:47.555Z,1.78
2022-11-29T15:57:16.293Z,2.12
2022-11-29T15:59:47.683Z,2.31
2022-11-29T16:04:59.023Z,1.93
2022-11-29T16:07:30.439Z,2.07
2022-11-29T16:09:58.328Z,1.87
2022-11-29T16:12:25.879Z,2.24
2022-11-29T16:37:29.446Z,2.34
2022-11-29T16:40:02.092Z,2.64
2022-11-29T16:42:34.780Z,2.24
2022-11-29T16:47:48.320Z,2.82
2022-11-29T16:53:12.860Z,2.52
2022-11-29T16:55:47.585Z,3.01
2022-11-29T16:58:15.536Z,3.27
2022-11-29T17:00:46.261Z,3.39
2022-11-29T17:03:18.198Z,3.57
2022-11-29T17:05:45.874Z,4.13
2022-11-29T17:08:21.723Z,3.99
2022-11-29T17:10:51.768Z,3.95
2022-11-29T17:13:21.497Z,4.09
2022-11-29T17:15:50.490Z,4.31
2022-11-29T17:18:17.683Z,4.60
2022-11-29T17:23:30.462Z,4.90
2022-11-29T17:25:59.456Z,4.26
2022-11-29T17:28:35.627Z,4.67
2022-11-29T17:34:13.841Z,4.57
2022-11-29T17:42:19.700Z,3.99
2022-11-29T17:47:39.491Z,3.96
2022-11-29T17:50:13.758Z,4.24
2022-11-29T17:55:32.524Z,4.84
2022-11-29T17:58:06.099Z,5.60
2022-11-29T18:00:32.960Z,5.80
2022-11-29T18:03:04.422Z,5.98
2022-11-29T18:05:34.717Z,6.05
2022-11-29T18:08:10.523Z,6.63
2022-11-29T18:10:37.757Z,6.79
2022-11-29T18:13:06.328Z,7.08
2022-11-29T18:15:36.924Z,6.94
2022-11-29T18:18:04.112Z,7.28
2022-11-29T18:20:33.383Z,7.07
2022-11-29T18:23:05.030Z,7.29
2022-11-29T18:25:40.114Z,7.07
2022-11-29T18:28:07.749Z,7.65
2022-11-29T18:30:36.544Z,6.96
2022-11-29T18:33:06.599Z,6.86
2022-11-29T18:38:16.281Z,6.63
2022-11-29T18:40:45.148Z,6.47
2022-11-29T18:43:12.077Z,6.42
2022-11-29T18:51:32.568Z,6.14
2022-11-29T18:56:43.673Z,6.66
2022-11-29T18:59:12.091Z,6.67
2022-11-29T19:01:52.320Z,6.84
2022-11-29T19:04:20.196Z,6.50
2022-11-29T19:06:47.600Z,6.45
2022-11-29T19:09:20.491Z,6.36
2022-11-29T19:11:58.363Z,6.43
2022-11-29T19:14:26.711Z,6.10
2022-11-29T19:16:59.479Z,6.40
2022-11-29T19:19:38.591Z,6.46
2022-11-29T19:22:05.476Z,6.52
2022-11-29T19:30:15.357Z,6.11
2022-11-29T19:35:32.666Z,5.80
2022-11-29T19:38:05.610Z,6.22
2022-11-29T19:40:32.732Z,6.08
2022-11-29T19:43:03.915Z,6.37
2022-11-29T19:45:32.341Z,6.31
2022-11-29T19:48:02.787Z,6.10
2022-11-29T19:50:33.252Z,6.34
2022-11-29T19:53:04.655Z,6.21
2022-11-29T19:55:32.150Z,6.44
2022-11-29T19:58:09.942Z,6.50
2022-11-29T20:00:39.826Z,6.45
2022-11-29T20:03:14.584Z,6.88
2022-11-29T20:08:39.015Z,7.25
2022-11-29T20:11:10.041Z,7.31
2022-11-29T20:16:20.381Z,7.27
2022-11-29T20:18:50.728Z,7.14
2022-11-29T20:21:18.747Z,7.18
2022-11-29T20:23:48.692Z,7.05
2022-11-29T20:26:25.821Z,7.60
2022-11-29T20:28:55.803Z,7.42
2022-11-29T20:31:33.291Z,7.74
2022-11-29T20:34:01.957Z,7.43
2022-11-29T20:36:29.686Z,7.35
2022-11-29T20:39:09.791Z,7.64
2022-11-29T20:41:38.523Z,7.63
2022-11-29T20:44:07.450Z,8.07
2022-11-29T20:46:35.822Z,8.02
2022-11-29T20:49:06.987Z,7.81
2022-11-29T20:51:38.073Z,7.60
2022-11-29T20:54:10.036Z,7.77
2022-11-29T20:59:23.473Z,8.14
2022-11-29T21:01:59.014Z,7.83
2022-11-29T21:04:27.371Z,7.53
2022-11-29T21:07:00.910Z,7.40
2022-11-29T21:09:28.617Z,7.50
2022-11-29T21:11:56.188Z,7.91
2022-11-29T21:14:24.986Z,8.48
2022-11-29T21:16:56.104Z,8.23
2022-11-29T21:19:27.108Z,8.22
2022-11-29T21:21:54.559Z,8.46
2022-11-29T21:24:21.900Z,8.11
2022-11-29T21:26:49.328Z,8.00
2022-11-29T21:29:16.375Z,8.24
2022-11-29T21:31:43.982Z,8.27
2022-11-29T21:34:10.966Z,7.88
2022-11-29T21:36:38.432Z,7.97
2022-11-29T21:39:09.022Z,7.83
2022-11-29T21:41:36.149Z,7.55
2022-11-29T21:44:07.829Z,7.55
2022-11-29T21:46:35.879Z,7.56
2022-11-29T21:49:03.797Z,7.86
2022-11-29T21:51:30.918Z,7.45
2022-11-29T21:54:02.922Z,8.23
2022-11-29T21:56:34.771Z,7.55
2022-11-29T21:59:12.685Z,7.53
2022-11-29T22:01:40.097Z,7.48
2022-11-29T22:04:07.616Z,7.82
2022-11-29T22:06:34.618Z,7.65
2022-11-29T22:09:02.281Z,7.86
2022-11-29T22:11:34.673Z,7.72
2022-11-29T22:14:03.562Z,7.58
2022-11-29T22:16:31.154Z,7.88
2022-11-29T22:19:01.261Z,7.34
2022-11-29T22:21:28.041Z,7.12
2022-11-29T22:23:56.162Z,7.72
2022-11-29T22:26:22.908Z,7.33
2022-11-29T22:28:49.827Z,7.13
2022-11-29T22:31:20.206Z,7.93
2022-11-29T22:36:39.521Z,8.13
2022-11-29T22:39:06.623Z,8.29
2022-11-29T22:41:34.956Z,9.18
2022-11-29T22:44:03.213Z,8.93
2022-11-29T22:46:41.526Z,9.32
2022-11-29T22:49:08.623Z,9.17
2022-11-29T22:51:35.784Z,9.00
2022-11-29T22:54:02.768Z,9.02
2022-11-29T22:56:31.338Z,9.30
2022-11-29T22:59:07.881Z,9.33
2022-11-29T23:01:36.638Z,9.31
2022-11-29T23:04:07.769Z,9.17
2022-11-29T23:06:35.374Z,8.30
2022-11-29T23:09:04.062Z,8.22
2022-11-29T23:11:30.565Z,8.17
2022-11-29T23:14:01.052Z,7.85
2022-11-29T23:16:27.942Z,7.76
2022-11-29T23:18:55.569Z,7.40
2022-11-29T23:21:22.321Z,7.62
2022-11-29T23:23:54.538Z,7.64
2022-11-29T23:26:24.916Z,7.43
2022-11-29T23:28:52.439Z,7.82
2022-11-29T23:31:19.554Z,7.29
2022-11-29T23:33:47.109Z,7.63
2022-11-29T23:36:15.013Z,6.60
2022-11-29T23:38:42.514Z,6.97
2022-11-29T23:41:10.508Z,6.51
2022-11-29T23:43:38.855Z,5.74
2022-11-29T23:46:11.959Z,6.15
2022-11-29T23:48:38.665Z,5.92
2022-11-29T23:51:06.335Z,5.86
2022-11-29T23:53:33.843Z,6.27
2022-11-29T23:56:01.385Z,5.95
2022-11-29T23:58:29.216Z,6.01
